sensor_id;sensor_type;location;lat;lon;timestamp;pressure;altitude;pressure_sealevel;temperature;humidity
48630;BME280;34426;52.180;4.462;2023-04-15T00:00:03;100911.75;;;9.67;65.30
48630;BME280;34426;52.180;4.462;2023-04-15T00:02:30;100911.09;;;9.60;65.50
48630;BME280;34426;52.180;4.462;2023-04-15T00:04:58;100916.63;;;9.55;65.12
48630;BME280;34426;52.180;4.462;2023-04-15T00:07:26;100912.19;;;9.59;64.61
48630;BME280;34426;52.180;4.462;2023-04-15T00:09:53;100913.53;;;9.51;64.88
48630;BME280;34426;52.180;4.462;2023-04-15T00:12:21;100921.06;;;9.51;65.80
48630;BME280;34426;52.180;4.462;2023-04-15T00:14:49;100917.69;;;9.49;65.67
48630;BME280;34426;52.180;4.462;2023-04-15T00:17:18;100919.22;;;9.40;64.20
48630;BME280;34426;52.180;4.462;2023-04-15T00:19:45;100917.22;;;9.35;64.53
48630;BME280;34426;52.180;4.462;2023-04-15T00:22:13;100914.59;;;9.28;64.84
48630;BME280;34426;52.180;4.462;2023-04-15T00:24:40;100914.03;;;9.26;64.97
48630;BME280;34426;52.180;4.462;2023-04-15T00:27:07;100922.00;;;9.18;65.02
48630;BME280;34426;52.180;4.462;2023-04-15T00:29:34;100922.25;;;9.16;65.27
48630;BME280;34426;52.180;4.462;2023-04-15T00:32:01;100929.19;;;9.14;65.34
48630;BME280;34426;52.180;4.462;2023-04-15T00:34:31;100927.19;;;9.09;64.77
48630;BME280;34426;52.180;4.462;2023-04-15T00:36:58;100927.56;;;9.18;64.86
48630;BME280;34426;52.180;4.462;2023-04-15T00:39:26;100925.75;;;9.07;65.08
48630;BME280;34426;52.180;4.462;2023-04-15T00:41:53;100927.38;;;9.03;65.71
48630;BME280;34426;52.180;4.462;2023-04-15T00:44:21;100929.75;;;8.94;65.42
48630;BME280;34426;52.180;4.462;2023-04-15T00:46:50;100935.22;;;8.89;65.21
48630;BME280;34426;52.180;4.462;2023-04-15T00:49:18;100936.94;;;8.90;65.87
48630;BME280;34426;52.180;4.462;2023-04-15T00:51:47;100931.59;;;8.88;66.04
48630;BME280;34426;52.180;4.462;2023-04-15T00:54:15;100936.09;;;8.89;65.19
48630;BME280;34426;52.180;4.462;2023-04-15T00:56:43;100931.53;;;8.83;65.89
48630;BME280;34426;52.180;4.462;2023-04-15T00:59:10;100935.91;;;8.79;65.75
48630;BME280;34426;52.180;4.462;2023-04-15T01:01:38;100930.34;;;8.79;66.50
48630;BME280;34426;52.180;4.462;2023-04-15T01:04:06;100933.63;;;8.76;65.85
48630;BME280;34426;52.180;4.462;2023-04-15T01:06:34;100933.22;;;8.67;66.29
48630;BME280;34426;52.180;4.462;2023-04-15T01:09:03;100937.19;;;8.72;66.64
48630;BME280;34426;52.180;4.462;2023-04-15T01:11:32;100934.31;;;8.66;66.86
48630;BME280;34426;52.180;4.462;2023-04-15T01:14:00;100931.97;;;8.58;67.61
48630;BME280;34426;52.180;4.462;2023-04-15T01:16:27;100940.84;;;8.55;67.41
48630;BME280;34426;52.180;4.462;2023-04-15T01:18:54;100936.44;;;8.59;67.33
48630;BME280;34426;52.180;4.462;2023-04-15T01:21:23;100945.91;;;8.58;67.77
48630;BME280;34426;52.180;4.462;2023-04-15T01:23:51;100942.03;;;8.59;67.02
48630;BME280;34426;52.180;4.462;2023-04-15T01:26:22;100938.13;;;8.60;67.74
48630;BME280;34426;52.180;4.462;2023-04-15T01:28:49;100942.53;;;8.56;67.71
48630;BME280;34426;52.180;4.462;2023-04-15T01:31:17;100942.53;;;8.56;67.57
48630;BME280;34426;52.180;4.462;2023-04-15T01:33:45;100937.09;;;8.50;68.04
48630;BME280;34426;52.180;4.462;2023-04-15T01:36:13;100938.13;;;8.44;68.48
48630;BME280;34426;52.180;4.462;2023-04-15T01:38:41;100942.50;;;8.40;68.43
48630;BME280;34426;52.180;4.462;2023-04-15T01:41:08;100938.63;;;8.41;68.20
48630;BME280;34426;52.180;4.462;2023-04-15T01:43:37;100939.81;;;8.45;68.87
48630;BME280;34426;52.180;4.462;2023-04-15T01:46:05;100940.47;;;8.35;68.60
48630;BME280;34426;52.180;4.462;2023-04-15T01:48:33;100937.53;;;8.42;68.19
48630;BME280;34426;52.180;4.462;2023-04-15T01:51:00;100944.34;;;8.34;68.86
48630;BME280;34426;52.180;4.462;2023-04-15T01:53:28;100938.91;;;8.27;69.15
48630;BME280;34426;52.180;4.462;2023-04-15T01:55:55;100945.91;;;8.30;69.54
48630;BME280;34426;52.180;4.462;2023-04-15T01:58:23;100946.50;;;8.32;69.77
48630;BME280;34426;52.180;4.462;2023-04-15T02:00:52;100947.00;;;8.29;69.79
48630;BME280;34426;52.180;4.462;2023-04-15T02:03:20;100950.28;;;8.26;70.18
48630;BME280;34426;52.180;4.462;2023-04-15T02:05:47;100950.81;;;8.23;70.00
48630;BME280;34426;52.180;4.462;2023-04-15T02:08:15;100947.50;;;8.26;70.39
48630;BME280;34426;52.180;4.462;2023-04-15T02:10:42;100950.22;;;8.21;70.63
48630;BME280;34426;52.180;4.462;2023-04-15T02:13:10;100953.91;;;8.10;70.59
48630;BME280;34426;52.180;4.462;2023-04-15T02:15:37;100955.94;;;8.14;70.84
48630;BME280;34426;52.180;4.462;2023-04-15T02:18:06;100956.69;;;8.10;70.94
48630;BME280;34426;52.180;4.462;2023-04-15T02:20:34;100956.94;;;8.08;71.12
48630;BME280;34426;52.180;4.462;2023-04-15T02:23:01;100962.66;;;8.01;71.90
48630;BME280;34426;52.180;4.462;2023-04-15T02:25:28;100966.53;;;8.00;71.01
48630;BME280;34426;52.180;4.462;2023-04-15T02:27:57;100970.78;;;8.03;71.42
48630;BME280;34426;52.180;4.462;2023-04-15T02:30:25;100975.50;;;8.02;70.94
48630;BME280;34426;52.180;4.462;2023-04-15T02:32:52;100972.72;;;8.02;71.49
48630;BME280;34426;52.180;4.462;2023-04-15T02:35:21;100976.47;;;7.96;71.38
48630;BME280;34426;52.180;4.462;2023-04-15T02:37:49;100971.75;;;7.97;71.41
48630;BME280;34426;52.180;4.462;2023-04-15T02:40:16;100986.44;;;7.92;71.82
48630;BME280;34426;52.180;4.462;2023-04-15T02:42:44;100979.88;;;7.98;71.79
48630;BME280;34426;52.180;4.462;2023-04-15T02:45:12;100986.31;;;7.87;72.18
48630;BME280;34426;52.180;4.462;2023-04-15T02:47:39;100987.03;;;7.94;72.06
48630;BME280;34426;52.180;4.462;2023-04-15T02:50:08;100986.44;;;7.92;71.86
48630;BME280;34426;52.180;4.462;2023-04-15T02:52:38;100991.28;;;7.85;72.40
48630;BME280;34426;52.180;4.462;2023-04-15T02:55:06;100992.47;;;7.89;72.75
48630;BME280;34426;52.180;4.462;2023-04-15T02:57:34;100990.78;;;7.88;72.86
48630;BME280;34426;52.180;4.462;2023-04-15T03:00:02;100995.28;;;7.89;72.95
48630;BME280;34426;52.180;4.462;2023-04-15T03:02:33;100991.88;;;7.87;72.72
48630;BME280;34426;52.180;4.462;2023-04-15T03:05:01;100992.38;;;7.84;73.21
48630;BME280;34426;52.180;4.462;2023-04-15T03:07:29;100998.53;;;7.86;73.09
48630;BME280;34426;52.180;4.462;2023-04-15T03:09:58;101002.44;;;7.85;73.16
48630;BME280;34426;52.180;4.462;2023-04-15T03:12:25;101001.81;;;7.83;73.24
48630;BME280;34426;52.180;4.462;2023-04-15T03:14:53;100996.66;;;7.75;73.46
48630;BME280;34426;52.180;4.462;2023-04-15T03:17:20;101001.38;;;7.75;73.72
48630;BME280;34426;52.180;4.462;2023-04-15T03:19:47;100999.53;;;7.80;73.50
48630;BME280;34426;52.180;4.462;2023-04-15T03:22:14;101005.09;;;7.80;73.37
48630;BME280;34426;52.180;4.462;2023-04-15T03:24:42;101006.78;;;7.81;73.56
48630;BME280;34426;52.180;4.462;2023-04-15T03:27:11;101011.19;;;7.77;73.53
48630;BME280;34426;52.180;4.462;2023-04-15T03:29:38;101008.28;;;7.72;73.17
48630;BME280;34426;52.180;4.462;2023-04-15T03:32:06;101012.28;;;7.76;73.21
48630;BME280;34426;52.180;4.462;2023-04-15T03:34:33;101017.25;;;7.74;73.45
48630;BME280;34426;52.180;4.462;2023-04-15T03:37:00;101016.03;;;7.70;73.65
48630;BME280;34426;52.180;4.462;2023-04-15T03:39:28;101014.84;;;7.66;74.19
48630;BME280;34426;52.180;4.462;2023-04-15T03:41:56;101020.41;;;7.66;74.39
48630;BME280;34426;52.180;4.462;2023-04-15T03:44:25;101020.75;;;7.70;73.63
48630;BME280;34426;52.180;4.462;2023-04-15T03:46:54;101014.84;;;7.66;74.61
48630;BME280;34426;52.180;4.462;2023-04-15T03:49:21;101020.41;;;7.66;74.01
48630;BME280;34426;52.180;4.462;2023-04-15T03:51:49;101025.47;;;7.69;74.24
48630;BME280;34426;52.180;4.462;2023-04-15T03:54:17;101028.88;;;7.71;74.16
48630;BME280;34426;52.180;4.462;2023-04-15T03:56:44;101033.09;;;7.74;73.67
48630;BME280;34426;52.180;4.462;2023-04-15T03:59:12;101039.28;;;7.64;74.09
48630;BME280;34426;52.180;4.462;2023-04-15T04:01:41;101039.91;;;7.66;74.89
48630;BME280;34426;52.180;4.462;2023-04-15T04:04:09;101042.06;;;7.64;74.66
48630;BME280;34426;52.180;4.462;2023-04-15T04:06:36;101040.63;;;7.61;75.17
48630;BME280;34426;52.180;4.462;2023-04-15T04:09:04;101053.09;;;7.59;75.09
48630;BME280;34426;52.180;4.462;2023-04-15T04:11:31;101053.81;;;7.54;75.58
48630;BME280;34426;52.180;4.462;2023-04-15T04:13:58;101059.75;;;7.58;75.94
48630;BME280;34426;52.180;4.462;2023-04-15T04:16:26;101062.28;;;7.48;76.20
48630;BME280;34426;52.180;4.462;2023-04-15T04:18:55;101060.72;;;7.52;76.37
48630;BME280;34426;52.180;4.462;2023-04-15T04:21:23;101067.00;;;7.47;76.42
48630;BME280;34426;52.180;4.462;2023-04-15T04:23:50;101071.72;;;7.47;76.78
48630;BME280;34426;52.180;4.462;2023-04-15T04:26:18;101070.50;;;7.43;76.67
48630;BME280;34426;52.180;4.462;2023-04-15T04:28:45;101076.22;;;7.36;77.29
48630;BME280;34426;52.180;4.462;2023-04-15T04:31:13;101074.88;;;7.39;77.26
48630;BME280;34426;52.180;4.462;2023-04-15T04:33:40;101082.88;;;7.35;77.14
48630;BME280;34426;52.180;4.462;2023-04-15T04:36:10;101088.56;;;7.28;77.57
48630;BME280;34426;52.180;4.462;2023-04-15T04:38:37;101090.84;;;7.31;77.29
48630;BME280;34426;52.180;4.462;2023-04-15T04:41:05;101089.03;;;7.25;77.70
48630;BME280;34426;52.180;4.462;2023-04-15T04:43:32;101096.91;;;7.28;77.63
48630;BME280;34426;52.180;4.462;2023-04-15T04:46:01;101101.50;;;7.23;78.07
48630;BME280;34426;52.180;4.462;2023-04-15T04:48:28;101095.19;;;7.16;78.22
48630;BME280;34426;52.180;4.462;2023-04-15T04:50:55;101097.50;;;7.19;78.24
48630;BME280;34426;52.180;4.462;2023-04-15T04:53:25;101106.06;;;7.17;78.20
48630;BME280;34426;52.180;4.462;2023-04-15T04:55:52;101110.31;;;7.20;78.24
48630;BME280;34426;52.180;4.462;2023-04-15T04:58:20;101113.94;;;7.20;78.21
48630;BME280;34426;52.180;4.462;2023-04-15T05:00:47;101122.63;;;7.12;78.81
48630;BME280;34426;52.180;4.462;2023-04-15T05:03:14;101126.25;;;7.13;78.83
48630;BME280;34426;52.180;4.462;2023-04-15T05:05:42;101125.66;;;7.11;78.84
48630;BME280;34426;52.180;4.462;2023-04-15T05:08:09;101128.66;;;7.09;78.81
48630;BME280;34426;52.180;4.462;2023-04-15T05:10:38;101135.31;;;7.08;79.03
48630;BME280;34426;52.180;4.462;2023-04-15T05:13:05;101140.41;;;7.11;79.76
48630;BME280;34426;52.180;4.462;2023-04-15T05:15:32;101149.09;;;7.03;79.58
48630;BME280;34426;52.180;4.462;2023-04-15T05:18:00;101152.25;;;7.07;79.68
48630;BME280;34426;52.180;4.462;2023-04-15T05:20:27;101153.69;;;7.09;79.44
48630;BME280;34426;52.180;4.462;2023-04-15T05:22:55;101168.69;;;7.08;79.33
48630;BME280;34426;52.180;4.462;2023-04-15T05:25:23;101160.34;;;7.08;79.58
48630;BME280;34426;52.180;4.462;2023-04-15T05:27:52;101168.69;;;7.08;79.33
48630;BME280;34426;52.180;4.462;2023-04-15T05:30:19;101179.34;;;7.11;79.87
48630;BME280;34426;52.180;4.462;2023-04-15T05:32:46;101183.22;;;7.10;79.64
48630;BME280;34426;52.180;4.462;2023-04-15T05:35:13;101191.69;;;7.15;79.70
48630;BME280;34426;52.180;4.462;2023-04-15T05:37:41;101194.63;;;7.20;79.69
48630;BME280;34426;52.180;4.462;2023-04-15T05:40:09;101202.81;;;7.15;79.90
48630;BME280;34426;52.180;4.462;2023-04-15T05:42:36;101210.09;;;7.16;80.09
48630;BME280;34426;52.180;4.462;2023-04-15T05:45:06;101214.69;;;7.22;80.16
48630;BME280;34426;52.180;4.462;2023-04-15T05:47:33;101217.94;;;7.19;80.13
48630;BME280;34426;52.180;4.462;2023-04-15T05:50:01;101214.22;;;7.25;80.37
48630;BME280;34426;52.180;4.462;2023-04-15T05:52:28;101224.41;;;7.31;79.96
48630;BME280;34426;52.180;4.462;2023-04-15T05:54:56;101229.84;;;7.38;79.84
48630;BME280;34426;52.180;4.462;2023-04-15T05:57:23;101234.94;;;7.41;80.01
48630;BME280;34426;52.180;4.462;2023-04-15T05:59:50;101240.88;;;7.45;79.49
48630;BME280;34426;52.180;4.462;2023-04-15T06:02:20;101249.38;;;7.50;79.71
48630;BME280;34426;52.180;4.462;2023-04-15T06:04:47;101253.59;;;7.52;79.86
48630;BME280;34426;52.180;4.462;2023-04-15T06:07:15;101256.91;;;7.61;80.00
48630;BME280;34426;52.180;4.462;2023-04-15T06:09:42;101260.91;;;7.65;79.33
48630;BME280;34426;52.180;4.462;2023-04-15T06:12:09;101271.22;;;7.76;79.56
48630;BME280;34426;52.180;4.462;2023-04-15T06:14:37;101283.69;;;7.85;78.88
48630;BME280;34426;52.180;4.462;2023-04-15T06:17:04;101284.44;;;7.92;79.16
48630;BME280;34426;52.180;4.462;2023-04-15T06:19:34;101297.16;;;8.00;78.68
48630;BME280;34426;52.180;4.462;2023-04-15T06:22:04;101292.69;;;8.11;79.22
48630;BME280;34426;52.180;4.462;2023-04-15T06:24:32;101297.91;;;8.19;78.30
48630;BME280;34426;52.180;4.462;2023-04-15T06:27:00;101305.03;;;8.26;77.52
48630;BME280;34426;52.180;4.462;2023-04-15T06:29:27;101308.72;;;8.39;77.48
48630;BME280;34426;52.180;4.462;2023-04-15T06:31:55;101312.09;;;8.41;77.45
48630;BME280;34426;52.180;4.462;2023-04-15T06:34:22;101309.44;;;8.46;77.44
48630;BME280;34426;52.180;4.462;2023-04-15T06:36:51;101317.44;;;8.54;77.14
48630;BME280;34426;52.180;4.462;2023-04-15T06:39:19;101321.69;;;8.56;76.92
48630;BME280;34426;52.180;4.462;2023-04-15T06:41:46;101324.13;;;8.64;77.27
48630;BME280;34426;52.180;4.462;2023-04-15T06:44:13;101324.97;;;8.65;77.16
48630;BME280;34426;52.180;4.462;2023-04-15T06:46:41;101328.69;;;8.71;77.47
48630;BME280;34426;52.180;4.462;2023-04-15T06:49:08;101333.91;;;8.79;76.88
48630;BME280;34426;52.180;4.462;2023-04-15T06:51:35;101344.31;;;8.83;75.98
48630;BME280;34426;52.180;4.462;2023-04-15T06:54:05;101339.22;;;8.92;75.67
48630;BME280;34426;52.180;4.462;2023-04-15T06:56:32;101347.47;;;8.98;76.28
48630;BME280;34426;52.180;4.462;2023-04-15T06:58:59;101346.13;;;9.01;74.77
48630;BME280;34426;52.180;4.462;2023-04-15T07:01:27;101347.22;;;9.00;76.14
48630;BME280;34426;52.180;4.462;2023-04-15T07:03:54;101350.72;;;9.07;75.34
48630;BME280;34426;52.180;4.462;2023-04-15T07:06:25;101359.41;;;9.22;74.64
48630;BME280;34426;52.180;4.462;2023-04-15T07:08:52;101358.91;;;9.25;74.74
48630;BME280;34426;52.180;4.462;2023-04-15T07:11:22;101355.03;;;9.26;74.71
48630;BME280;34426;52.180;4.462;2023-04-15T07:13:49;101363.00;;;9.34;74.63
48630;BME280;34426;52.180;4.462;2023-04-15T07:16:17;101365.19;;;9.32;74.54
48630;BME280;34426;52.180;4.462;2023-04-15T07:18:44;101380.38;;;9.37;75.17
48630;BME280;34426;52.180;4.462;2023-04-15T07:21:12;101376.19;;;9.51;73.80
48630;BME280;34426;52.180;4.462;2023-04-15T07:23:39;101378.47;;;9.54;73.30
48630;BME280;34426;52.180;4.462;2023-04-15T07:26:08;101375.78;;;9.59;72.21
48630;BME280;34426;52.180;4.462;2023-04-15T07:28:37;101381.38;;;9.59;72.61
48630;BME280;34426;52.180;4.462;2023-04-15T07:31:05;101392.16;;;9.67;72.82
48630;BME280;34426;52.180;4.462;2023-04-15T07:33:33;101394.03;;;9.78;71.43
48630;BME280;34426;52.180;4.462;2023-04-15T07:36:00;101403.13;;;9.85;72.09
48630;BME280;34426;52.180;4.462;2023-04-15T07:38:28;101406.53;;;9.87;71.88
48630;BME280;34426;52.180;4.462;2023-04-15T07:40:56;101406.53;;;9.87;73.20
48630;BME280;34426;52.180;4.462;2023-04-15T07:43:23;101418.47;;;9.99;71.79
48630;BME280;34426;52.180;4.462;2023-04-15T07:45:53;101429.25;;;10.08;71.13
48630;BME280;34426;52.180;4.462;2023-04-15T07:48:19;101418.06;;;10.08;70.78
48630;BME280;34426;52.180;4.462;2023-04-15T07:50:46;101428.50;;;10.12;71.03
48630;BME280;34426;52.180;4.462;2023-04-15T07:53:14;101427.28;;;10.20;70.68
48630;BME280;34426;52.180;4.462;2023-04-15T07:55:41;101437.09;;;10.22;70.92
48630;BME280;34426;52.180;4.462;2023-04-15T07:58:09;101443.25;;;10.36;70.43
48630;BME280;34426;52.180;4.462;2023-04-15T08:00:36;101445.00;;;10.42;70.06
48630;BME280;34426;52.180;4.462;2023-04-15T08:03:06;101443.47;;;10.51;69.92
48630;BME280;34426;52.180;4.462;2023-04-15T08:05:33;101450.78;;;10.52;70.00
48630;BME280;34426;52.180;4.462;2023-04-15T08:08:04;101457.97;;;10.48;70.88
48630;BME280;34426;52.180;4.462;2023-04-15T08:10:32;101456.88;;;10.49;70.57
48630;BME280;34426;52.180;4.462;2023-04-15T08:12:59;101459.59;;;10.61;68.95
48630;BME280;34426;52.180;4.462;2023-04-15T08:15:27;101472.41;;;10.74;68.02
48630;BME280;34426;52.180;4.462;2023-04-15T08:17:55;101477.50;;;10.77;66.95
48630;BME280;34426;52.180;4.462;2023-04-15T08:20:25;101478.69;;;10.81;66.72
48630;BME280;34426;52.180;4.462;2023-04-15T08:22:53;101480.97;;;10.84;67.16
48630;BME280;34426;52.180;4.462;2023-04-15T08:25:20;101477.84;;;10.80;67.86
48630;BME280;34426;52.180;4.462;2023-04-15T08:27:48;101481.03;;;10.89;68.04
48630;BME280;34426;52.180;4.462;2023-04-15T08:30:15;101494.28;;;10.93;67.66
48630;BME280;34426;52.180;4.462;2023-04-15T08:32:45;101491.38;;;11.05;66.60
48630;BME280;34426;52.180;4.462;2023-04-15T08:35:13;101507.84;;;11.02;65.95
48630;BME280;34426;52.180;4.462;2023-04-15T08:37:43;101506.31;;;10.94;65.93
48630;BME280;34426;52.180;4.462;2023-04-15T08:40:11;101510.06;;;10.99;66.79
48630;BME280;34426;52.180;4.462;2023-04-15T08:42:43;101516.66;;;11.10;64.75
48630;BME280;34426;52.180;4.462;2023-04-15T08:45:11;101517.88;;;11.14;64.55
48630;BME280;34426;52.180;4.462;2023-04-15T08:47:40;101523.97;;;11.11;65.21
48630;BME280;34426;52.180;4.462;2023-04-15T08:50:10;101517.69;;;11.21;64.56
48630;BME280;34426;52.180;4.462;2023-04-15T08:52:38;101529.78;;;11.26;63.44
48630;BME280;34426;52.180;4.462;2023-04-15T08:55:09;101535.56;;;11.37;63.85
48630;BME280;34426;52.180;4.462;2023-04-15T08:57:38;101535.63;;;11.42;63.77
48630;BME280;34426;52.180;4.462;2023-04-15T09:00:07;101540.22;;;11.48;64.53
48630;BME280;34426;52.180;4.462;2023-04-15T09:02:35;101552.69;;;11.57;63.85
48630;BME280;34426;52.180;4.462;2023-04-15T09:05:03;101548.94;;;11.68;62.91
48630;BME280;34426;52.180;4.462;2023-04-15T09:07:30;101545.31;;;11.73;62.12
48630;BME280;34426;52.180;4.462;2023-04-15T09:09:59;101552.88;;;11.72;63.61
48630;BME280;34426;52.180;4.462;2023-04-15T09:12:28;101559.66;;;11.76;63.54
48630;BME280;34426;52.180;4.462;2023-04-15T09:14:55;101555.28;;;11.80;60.98
48630;BME280;34426;52.180;4.462;2023-04-15T09:17:23;101558.47;;;11.89;59.85
48630;BME280;34426;52.180;4.462;2023-04-15T09:20:07;101561.53;;;11.87;58.92
48630;BME280;34426;52.180;4.462;2023-04-15T09:22:33;101561.63;;;11.92;59.52
48630;BME280;34426;52.180;4.462;2023-04-15T09:24:58;101576.22;;;11.94;60.53
48630;BME280;34426;52.180;4.462;2023-04-15T09:27:25;101579.03;;;11.94;57.13
48630;BME280;34426;52.180;4.462;2023-04-15T09:29:52;101584.03;;;11.92;57.40
48630;BME280;34426;52.180;4.462;2023-04-15T09:32:20;101599.31;;;12.02;58.68
48630;BME280;34426;52.180;4.462;2023-04-15T09:34:46;101595.41;;;12.03;58.54
48630;BME280;34426;52.180;4.462;2023-04-15T09:37:12;101591.59;;;12.14;58.05
48630;BME280;34426;52.180;4.462;2023-04-15T09:39:46;101600.16;;;12.24;57.97
48630;BME280;34426;52.180;4.462;2023-04-15T09:42:14;101605.06;;;12.33;57.03
48630;BME280;34426;52.180;4.462;2023-04-15T09:44:44;101609.50;;;12.51;55.16
48630;BME280;34426;52.180;4.462;2023-04-15T09:47:27;101607.72;;;12.45;52.86
48630;BME280;34426;52.180;4.462;2023-04-15T09:49:57;101615.38;;;12.50;52.21
48630;BME280;34426;52.180;4.462;2023-04-15T09:52:25;101626.34;;;12.56;52.72
48630;BME280;34426;52.180;4.462;2023-04-15T09:54:53;101617.25;;;12.44;55.95
48630;BME280;34426;52.180;4.462;2023-04-15T09:57:21;101622.50;;;12.62;54.25
48630;BME280;34426;52.180;4.462;2023-04-15T09:59:50;101628.56;;;12.76;54.25
48630;BME280;34426;52.180;4.462;2023-04-15T10:02:19;101626.25;;;12.95;55.32
48630;BME280;34426;52.180;4.462;2023-04-15T10:04:47;101621.03;;;13.09;54.79
48630;BME280;34426;52.180;4.462;2023-04-15T10:07:15;101632.00;;;13.10;55.66
48630;BME280;34426;52.180;4.462;2023-04-15T10:09:44;101625.13;;;13.23;54.41
48630;BME280;34426;52.180;4.462;2023-04-15T10:12:12;101638.34;;;13.22;56.72
48630;BME280;34426;52.180;4.462;2023-04-15T10:14:41;101637.81;;;13.25;55.04
48630;BME280;34426;52.180;4.462;2023-04-15T10:17:10;101637.38;;;13.39;55.33
48630;BME280;34426;52.180;4.462;2023-04-15T10:19:41;101642.94;;;13.34;53.48
48630;BME280;34426;52.180;4.462;2023-04-15T10:22:09;101636.63;;;13.53;52.53
48630;BME280;34426;52.180;4.462;2023-04-15T10:24:36;101643.31;;;13.47;52.65
48630;BME280;34426;52.180;4.462;2023-04-15T10:27:06;101643.06;;;13.49;51.57
48630;BME280;34426;52.180;4.462;2023-04-15T10:29:34;101643.41;;;13.57;54.07
48630;BME280;34426;52.180;4.462;2023-04-15T10:32:02;101645.41;;;13.62;52.70
48630;BME280;34426;52.180;4.462;2023-04-15T10:34:32;101648.38;;;13.82;55.23
48630;BME280;34426;52.180;4.462;2023-04-15T10:37:01;101649.63;;;14.02;52.86
48630;BME280;34426;52.180;4.462;2023-04-15T10:39:46;101646.00;;;14.06;52.17
48630;BME280;34426;52.180;4.462;2023-04-15T10:42:14;101658.81;;;13.87;53.45
48630;BME280;34426;52.180;4.462;2023-04-15T10:44:43;101658.88;;;13.97;51.89
48630;BME280;34426;52.180;4.462;2023-04-15T10:47:12;101658.03;;;13.96;51.30
48630;BME280;34426;52.180;4.462;2023-04-15T10:49:51;101654.69;;;13.99;53.07
48630;BME280;34426;52.180;4.462;2023-04-15T10:52:22;101660.94;;;14.12;53.57
48630;BME280;34426;52.180;4.462;2023-04-15T10:54:53;101658.16;;;14.17;54.14
48630;BME280;34426;52.180;4.462;2023-04-15T10:57:33;101663.56;;;14.23;53.68
48630;BME280;34426;52.180;4.462;2023-04-15T11:00:10;101672.50;;;14.15;50.10
48630;BME280;34426;52.180;4.462;2023-04-15T11:02:44;101664.94;;;14.21;54.05
48630;BME280;34426;52.180;4.462;2023-04-15T11:05:14;101654.88;;;14.35;52.40
48630;BME280;34426;52.180;4.462;2023-04-15T11:07:49;101661.50;;;14.56;53.70
48630;BME280;34426;52.180;4.462;2023-04-15T11:10:49;101667.44;;;14.64;53.45
48630;BME280;34426;52.180;4.462;2023-04-15T11:13:21;101671.41;;;14.69;52.55
48630;BME280;34426;52.180;4.462;2023-04-15T11:15:49;101679.34;;;14.87;52.01
48630;BME280;34426;52.180;4.462;2023-04-15T11:18:18;101682.16;;;14.87;51.15
48630;BME280;34426;52.180;4.462;2023-04-15T11:20:49;101686.97;;;14.91;48.01
48630;BME280;34426;52.180;4.462;2023-04-15T11:23:17;101699.03;;;14.82;49.38
48630;BME280;34426;52.180;4.462;2023-04-15T11:25:45;101703.03;;;14.96;52.24
48630;BME280;34426;52.180;4.462;2023-04-15T11:28:12;101699.59;;;14.79;53.19
48630;BME280;34426;52.180;4.462;2023-04-15T11:30:43;101705.41;;;14.15;54.11
48630;BME280;34426;52.180;4.462;2023-04-15T11:33:12;101706.78;;;14.07;55.25
48630;BME280;34426;52.180;4.462;2023-04-15T11:35:41;101713.09;;;13.87;58.49
48630;BME280;34426;52.180;4.462;2023-04-15T11:38:11;101706.97;;;13.95;56.49
48630;BME280;34426;52.180;4.462;2023-04-15T11:40:39;101717.91;;;14.29;57.52
48630;BME280;34426;52.180;4.462;2023-04-15T11:43:08;101715.53;;;14.11;55.03
48630;BME280;34426;52.180;4.462;2023-04-15T11:45:49;101715.63;;;13.89;55.91
48630;BME280;34426;52.180;4.462;2023-04-15T11:48:16;101728.16;;;14.08;56.50
48630;BME280;34426;52.180;4.462;2023-04-15T11:50:44;101732.63;;;14.41;56.82
48630;BME280;34426;52.180;4.462;2023-04-15T11:53:14;101743.00;;;14.41;54.23
48630;BME280;34426;52.180;4.462;2023-04-15T11:55:44;101738.03;;;14.48;57.00
48630;BME280;34426;52.180;4.462;2023-04-15T11:58:13;101729.72;;;14.26;54.92
48630;BME280;34426;52.180;4.462;2023-04-15T12:00:45;101741.44;;;14.55;55.74
48630;BME280;34426;52.180;4.462;2023-04-15T12:03:14;101738.09;;;14.58;58.10
48630;BME280;34426;52.180;4.462;2023-04-15T12:06:06;101744.53;;;14.53;55.76
48630;BME280;34426;52.180;4.462;2023-04-15T12:08:56;101747.72;;;14.30;57.70
48630;BME280;34426;52.180;4.462;2023-04-15T12:11:28;101762.09;;;14.28;55.89
48630;BME280;34426;52.180;4.462;2023-04-15T12:13:57;101763.63;;;14.46;56.50
48630;BME280;34426;52.180;4.462;2023-04-15T12:16:26;101765.16;;;14.64;57.06
48630;BME280;34426;52.180;4.462;2023-04-15T12:18:54;101768.91;;;14.85;57.48
48630;BME280;34426;52.180;4.462;2023-04-15T12:21:24;101762.28;;;14.54;58.29
48630;BME280;34426;52.180;4.462;2023-04-15T12:24:00;101775.56;;;14.26;58.79
48630;BME280;34426;52.180;4.462;2023-04-15T12:26:28;101787.69;;;14.27;57.30
48630;BME280;34426;52.180;4.462;2023-04-15T12:29:00;101793.00;;;13.91;58.70
48630;BME280;34426;52.180;4.462;2023-04-15T12:31:27;101797.38;;;13.77;58.69
48630;BME280;34426;52.180;4.462;2023-04-15T12:33:56;101801.25;;;13.71;59.36
48630;BME280;34426;52.180;4.462;2023-04-15T12:36:25;101799.91;;;13.52;61.74
48630;BME280;34426;52.180;4.462;2023-04-15T12:38:56;101792.94;;;13.81;58.74
48630;BME280;34426;52.180;4.462;2023-04-15T12:41:25;101802.16;;;14.09;59.77
48630;BME280;34426;52.180;4.462;2023-04-15T12:43:56;101814.56;;;14.13;58.11
48630;BME280;34426;52.180;4.462;2023-04-15T12:46:23;101820.34;;;14.28;57.76
48630;BME280;34426;52.180;4.462;2023-04-15T12:48:51;101812.75;;;14.66;56.84
48630;BME280;34426;52.180;4.462;2023-04-15T12:51:18;101819.78;;;15.20;56.41
48630;BME280;34426;52.180;4.462;2023-04-15T12:53:49;101824.41;;;15.47;57.64
48630;BME280;34426;52.180;4.462;2023-04-15T12:56:17;101826.59;;;15.35;54.74
48630;BME280;34426;52.180;4.462;2023-04-15T12:58:51;101828.47;;;15.96;53.11
48630;BME280;34426;52.180;4.462;2023-04-15T13:01:18;101825.31;;;15.68;54.03